createdAt,value
2017-08-28T00:02:21.860Z,16.47
2017-08-28T00:04:50.123Z,15.30
2017-08-28T00:07:18.764Z,17.37
2017-08-28T00:09:47.486Z,17.73
2017-08-28T00:12:16.069Z,18.40
2017-08-28T00:14:44.490Z,15.33
2017-08-28T00:17:13.174Z,15.90
2017-08-28T00:19:41.669Z,16.70
2017-08-28T00:22:10.071Z,16.27
2017-08-28T00:24:38.817Z,17.67
2017-08-28T00:27:07.474Z,15.47
2017-08-28T00:29:36.003Z,16.13
2017-08-28T00:32:04.581Z,16.17
2017-08-28T00:34:33.574Z,15.43
2017-08-28T00:37:02.038Z,16.90
2017-08-28T00:39:30.053Z,14.20
2017-08-28T00:41:58.589Z,15.43
2017-08-28T00:44:27.197Z,13.67
2017-08-28T00:46:55.853Z,14.50
2017-08-28T00:49:24.643Z,15.00
2017-08-28T00:51:53.090Z,14.20
2017-08-28T00:54:21.566Z,15.80
2017-08-28T00:56:50.289Z,16.30
2017-08-28T00:59:18.742Z,16.63
2017-08-28T01:01:47.305Z,15.93
2017-08-28T01:04:16.110Z,15.30
2017-08-28T01:06:44.541Z,15.43
2017-08-28T01:09:13.053Z,16.97
2017-08-28T01:11:41.767Z,16.67
2017-08-28T01:14:10.518Z,15.53
2017-08-28T01:16:39.038Z,13.90
2017-08-28T01:19:07.134Z,13.40
2017-08-28T01:21:35.149Z,14.40
2017-08-28T01:24:03.824Z,13.60
2017-08-28T01:26:32.723Z,16.90
2017-08-28T01:29:01.249Z,15.10
2017-08-28T01:31:29.803Z,14.03
2017-08-28T01:33:57.920Z,11.97
2017-08-28T01:36:26.558Z,12.10
2017-08-28T01:38:55.170Z,12.77
2017-08-28T01:41:23.795Z,12.07
2017-08-28T01:43:52.319Z,13.90
2017-08-28T01:46:21.003Z,14.40
2017-08-28T01:48:49.118Z,14.43
2017-08-28T01:51:17.658Z,12.80
2017-08-28T01:53:45.671Z,12.13
2017-08-28T01:56:14.350Z,12.20
2017-08-28T01:58:42.374Z,11.00
2017-08-28T02:01:10.978Z,13.17
2017-08-28T02:03:39.766Z,14.93
2017-08-28T02:06:08.415Z,12.50
2017-08-28T02:08:36.431Z,12.63
2017-08-28T02:11:05.114Z,14.27
2017-08-28T02:13:33.121Z,15.07
2017-08-28T02:16:01.130Z,14.33
2017-08-28T02:18:29.221Z,13.80
2017-08-28T02:20:57.230Z,13.00
2017-08-28T02:23:25.946Z,13.73
2017-08-28T02:25:54.767Z,15.17
2017-08-28T02:28:23.290Z,13.83
2017-08-28T02:30:51.307Z,14.80
2017-08-28T02:33:19.746Z,14.63
2017-08-28T02:35:48.614Z,14.00
2017-08-28T02:38:17.214Z,13.43
2017-08-28T02:40:46.142Z,15.30
2017-08-28T02:43:14.438Z,15.20
2017-08-28T02:45:42.974Z,14.90
2017-08-28T02:48:11.838Z,14.47
2017-08-28T02:50:40.585Z,13.43
2017-08-28T02:53:08.595Z,15.57
2017-08-28T02:55:36.702Z,15.27
2017-08-28T02:58:05.255Z,15.53
2017-08-28T03:00:33.898Z,15.50
2017-08-28T03:03:02.822Z,15.83
2017-08-28T03:05:31.346Z,16.17
2017-08-28T03:07:59.902Z,14.40
2017-08-28T03:10:28.586Z,15.23
2017-08-28T03:12:57.378Z,15.97
2017-08-28T03:15:25.790Z,15.07
2017-08-28T03:17:53.890Z,14.23
2017-08-28T03:20:22.286Z,16.47
2017-08-28T03:22:50.822Z,15.73
2017-08-28T03:25:19.687Z,15.90
2017-08-28T03:27:48.465Z,17.10
2017-08-28T03:30:16.939Z,16.57
2017-08-28T03:32:45.570Z,17.87
2017-08-28T03:35:14.190Z,16.50
2017-08-28T03:37:42.899Z,16.80
2017-08-28T03:40:11.674Z,16.20
2017-08-28T03:42:40.397Z,15.43
2017-08-28T03:45:09.186Z,16.93
2017-08-28T03:47:38.186Z,18.20
2017-08-28T03:50:06.930Z,16.37
2017-08-28T03:52:35.477Z,16.67
2017-08-28T03:55:03.729Z,14.80
2017-08-28T03:57:32.514Z,17.70
2017-08-28T04:00:01.412Z,13.97
2017-08-28T04:02:30.119Z,11.57
2017-08-28T04:04:58.822Z,11.27
2017-08-28T04:07:27.370Z,10.60
2017-08-28T04:09:56.362Z,10.13
2017-08-28T04:12:24.979Z,8.70
2017-08-28T04:14:53.362Z,8.67
2017-08-28T04:17:21.918Z,9.40
2017-08-28T04:19:50.488Z,9.70
2017-08-28T04:22:19.014Z,9.97
2017-08-28T04:24:47.669Z,10.40
2017-08-28T04:27:16.381Z,8.67
2017-08-28T04:29:45.036Z,9.83
2017-08-28T04:32:13.487Z,9.80
2017-08-28T04:34:42.010Z,9.80
2017-08-28T04:37:10.655Z,9.07
2017-08-28T04:39:39.147Z,9.98
2017-08-28T04:42:07.660Z,10.35
2017-08-28T04:44:36.269Z,9.80
2017-08-28T04:47:05.199Z,10.83
2017-08-28T04:49:33.602Z,8.87
2017-08-28T04:52:02.230Z,8.83
2017-08-28T04:54:30.399Z,9.10
2017-08-28T04:56:58.966Z,8.43
2017-08-28T04:59:27.658Z,8.65
2017-08-28T05:01:56.438Z,9.82
2017-08-28T05:04:25.191Z,9.40
2017-08-28T05:06:53.654Z,9.07
2017-08-28T05:09:22.406Z,9.50
2017-08-28T05:11:51.198Z,10.02
2017-08-28T05:14:19.907Z,10.98
2017-08-28T05:16:48.439Z,10.07
2017-08-28T05:19:17.046Z,9.75
2017-08-28T05:21:45.629Z,10.00
2017-08-28T05:24:14.523Z,12.50
2017-08-28T05:26:43.478Z,11.43
2017-08-28T05:29:11.830Z,10.63
2017-08-28T05:31:39.959Z,11.57
2017-08-28T05:34:09.303Z,10.60
2017-08-28T05:36:37.739Z,9.63
2017-08-28T05:39:06.446Z,10.68
2017-08-28T05:41:34.959Z,10.93
2017-08-28T05:44:03.708Z,10.05
2017-08-28T05:46:32.126Z,9.98
2017-08-28T05:49:00.510Z,11.20
2017-08-28T05:51:29.002Z,10.52
2017-08-28T05:53:57.681Z,11.43
2017-08-28T05:56:26.334Z,10.40
2017-08-28T05:58:55.082Z,11.60
2017-08-28T06:01:23.587Z,9.77
2017-08-28T06:03:52.195Z,9.68
2017-08-28T06:06:20.802Z,11.02
2017-08-28T06:08:49.562Z,10.95
2017-08-28T06:11:18.344Z,10.82
2017-08-28T06:13:46.824Z,10.48
2017-08-28T06:16:15.666Z,9.73
2017-08-28T06:18:44.215Z,11.23
2017-08-28T06:21:12.797Z,11.38
2017-08-28T06:23:41.350Z,10.70
2017-08-28T06:26:09.974Z,10.07
2017-08-28T06:28:38.715Z,10.65
2017-08-28T06:31:07.394Z,9.38
2017-08-28T06:33:35.930Z,8.98
2017-08-28T06:36:04.714Z,10.13
2017-08-28T06:38:33.570Z,10.18
2017-08-28T06:41:01.930Z,9.57
2017-08-28T06:43:30.474Z,8.75
2017-08-28T06:45:59.363Z,9.00
2017-08-28T06:48:28.036Z,8.45
2017-08-28T06:50:56.411Z,8.13
2017-08-28T06:53:25.114Z,7.62
2017-08-28T06:55:53.139Z,9.65
2017-08-28T06:58:21.614Z,7.37
2017-08-28T07:00:50.358Z,7.43
2017-08-28T07:03:19.046Z,6.50
2017-08-28T07:05:47.110Z,6.90
2017-08-28T07:08:15.830Z,6.40
2017-08-28T07:10:44.557Z,7.53
2017-08-28T07:13:13.053Z,7.07
2017-08-28T07:15:41.770Z,6.80
2017-08-28T07:18:10.446Z,7.55
2017-08-28T07:20:39.127Z,7.62
2017-08-28T07:23:07.354Z,7.90
2017-08-28T07:25:35.893Z,7.50
2017-08-28T07:28:04.575Z,7.00
2017-08-28T07:30:32.690Z,7.47
2017-08-28T07:33:01.346Z,10.40
2017-08-28T07:35:29.811Z,10.80
2017-08-28T07:37:58.549Z,10.25
2017-08-28T07:40:27.132Z,11.45
2017-08-28T07:42:55.850Z,9.77
2017-08-28T07:45:24.450Z,10.20
2017-08-28T07:47:52.958Z,10.15
2017-08-28T07:50:21.602Z,9.63
2017-08-28T07:52:50.106Z,9.80
2017-08-28T07:55:18.614Z,10.50
2017-08-28T07:57:47.294Z,11.05
2017-08-28T08:00:16.150Z,10.85
2017-08-28T08:02:45.246Z,10.07
2017-08-28T08:05:13.962Z,10.52
2017-08-28T08:07:43.143Z,11.70
2017-08-28T08:10:11.926Z,10.77
2017-08-28T08:12:40.043Z,10.10
2017-08-28T08:15:08.927Z,10.20
2017-08-28T08:17:37.602Z,11.00
2017-08-28T08:20:06.086Z,10.80
2017-08-28T08:22:34.787Z,11.57
2017-08-28T08:25:03.400Z,10.73
2017-08-28T08:27:32.023Z,9.90
2017-08-28T08:30:00.678Z,10.03
2017-08-28T08:32:29.311Z,9.90
2017-08-28T08:34:57.910Z,10.40
2017-08-28T08:37:26.484Z,10.90
2017-08-28T08:39:54.718Z,10.23
2017-08-28T08:42:23.452Z,9.93
2017-08-28T08:44:52.218Z,10.67
2017-08-28T08:47:21.822Z,10.60
2017-08-28T08:49:50.223Z,10.13
2017-08-28T08:52:18.826Z,10.40
2017-08-28T08:54:47.539Z,10.03
2017-08-28T08:57:15.658Z,10.27
2017-08-28T08:59:43.845Z,10.87
2017-08-28T09:02:12.642Z,9.57
2017-08-28T09:04:41.175Z,10.13
2017-08-28T09:07:09.826Z,9.57
2017-08-28T09:09:38.506Z,10.53
2017-08-28T09:12:07.005Z,10.10
2017-08-28T09:14:35.950Z,9.37
2017-08-28T09:17:03.988Z,9.57
2017-08-28T09:19:32.422Z,9.97
2017-08-28T09:22:01.229Z,10.27
2017-08-28T09:24:29.743Z,9.37
2017-08-28T09:26:58.388Z,10.57
2017-08-28T09:29:27.018Z,8.87
2017-08-28T09:31:55.574Z,10.17
2017-08-28T09:34:24.040Z,9.93
2017-08-28T09:36:52.695Z,9.20
2017-08-28T09:39:21.234Z,9.50
2017-08-28T09:41:49.906Z,9.67
2017-08-28T09:44:18.726Z,9.60
2017-08-28T09:46:47.170Z,9.90
2017-08-28T09:49:15.693Z,10.23
2017-08-28T09:51:44.346Z,8.77
2017-08-28T09:54:13.130Z,9.73
2017-08-28T09:56:41.891Z,9.43
2017-08-28T09:59:10.562Z,10.40
2017-08-28T10:01:39.102Z,10.20
2017-08-28T10:04:07.777Z,9.30
2017-08-28T10:06:35.888Z,10.00
2017-08-28T10:09:04.778Z,8.70
2017-08-28T10:11:32.802Z,9.03
2017-08-28T10:14:01.614Z,8.80
2017-08-28T10:16:30.231Z,10.10
2017-08-28T10:18:58.945Z,9.30
2017-08-28T10:21:27.414Z,9.07
2017-08-28T10:23:55.957Z,10.20
2017-08-28T10:26:24.638Z,9.47
2017-08-28T10:28:53.494Z,7.37
2017-08-28T10:31:22.002Z,8.23
2017-08-28T10:33:50.628Z,8.90
2017-08-28T10:36:19.492Z,9.23
2017-08-28T10:38:48.065Z,9.73
2017-08-28T10:41:16.594Z,10.03
2017-08-28T10:43:45.383Z,8.97
2017-08-28T10:46:14.103Z,9.07
2017-08-28T10:48:42.615Z,7.93
2017-08-28T10:51:11.309Z,7.53
2017-08-28T10:53:39.890Z,9.23
2017-08-28T10:56:08.568Z,6.83
2017-08-28T10:58:37.375Z,9.40
2017-08-28T11:01:05.956Z,11.10
2017-08-28T11:03:34.639Z,10.40
2017-08-28T11:06:03.188Z,10.63
2017-08-28T11:08:31.206Z,9.80
2017-08-28T11:10:59.757Z,10.47
2017-08-28T11:13:28.470Z,9.73
2017-08-28T11:15:57.050Z,10.37
2017-08-28T11:18:25.803Z,10.57
2017-08-28T11:20:54.294Z,9.30
2017-08-28T11:23:22.738Z,10.20
2017-08-28T11:25:50.763Z,9.70
2017-08-28T11:28:19.501Z,10.73
2017-08-28T11:30:47.978Z,10.27
2017-08-28T11:33:16.728Z,9.53
2017-08-28T11:35:44.842Z,10.57
2017-08-28T11:38:13.631Z,8.63
2017-08-28T11:40:42.351Z,10.40
2017-08-28T11:43:11.346Z,9.57
2017-08-28T11:45:39.706Z,9.47
2017-08-28T11:48:08.278Z,8.77
2017-08-28T11:50:37.034Z,8.83
2017-08-28T11:53:05.062Z,9.60
2017-08-28T11:55:33.594Z,9.17
2017-08-28T11:58:02.546Z,8.73
2017-08-28T12:00:30.842Z,9.30
2017-08-28T12:02:59.581Z,8.40
2017-08-28T12:05:28.134Z,8.93
2017-08-28T12:07:56.448Z,9.80
2017-08-28T12:10:25.029Z,8.00
2017-08-28T12:12:53.886Z,8.77
2017-08-28T12:15:22.356Z,8.20
2017-08-28T12:17:50.790Z,7.70
2017-08-28T12:20:19.543Z,8.47
2017-08-28T12:22:47.574Z,8.80
2017-08-28T12:25:16.022Z,8.93
2017-08-28T12:27:44.281Z,9.33
2017-08-28T12:30:12.886Z,9.00
2017-08-28T12:32:40.898Z,9.30
2017-08-28T12:35:09.518Z,8.50
2017-08-28T12:37:37.518Z,10.10
2017-08-28T12:40:05.533Z,10.33
2017-08-28T12:42:34.338Z,9.17
2017-08-28T12:45:02.426Z,9.20
2017-08-28T12:47:31.071Z,9.80
2017-08-28T12:49:59.556Z,9.57
2017-08-28T12:52:27.970Z,9.57
2017-08-28T12:54:56.619Z,9.27
2017-08-28T12:57:24.997Z,9.10
2017-08-28T12:59:53.034Z,9.33
2017-08-28T13:02:21.635Z,9.13
2017-08-28T13:04:50.283Z,9.80
2017-08-28T13:07:18.965Z,8.93
2017-08-28T13:09:47.718Z,9.50
2017-08-28T13:12:16.303Z,9.33
2017-08-28T13:14:44.750Z,10.00
2017-08-28T13:17:13.150Z,9.77
2017-08-28T13:19:41.795Z,11.37
2017-08-28T13:22:10.381Z,9.40
2017-08-28T13:24:39.055Z,9.70
2017-08-28T13:27:07.710Z,9.53
2017-08-28T13:29:36.234Z,9.07
2017-08-28T13:32:04.909Z,10.27
2017-08-28T13:34:33.472Z,9.77
2017-08-28T13:37:02.013Z,9.83
2017-08-28T13:39:30.766Z,10.00
2017-08-28T13:41:59.510Z,8.77
2017-08-28T13:44:27.873Z,9.10
2017-08-28T13:46:56.541Z,9.43
2017-08-28T13:49:25.086Z,10.10
2017-08-28T13:51:53.604Z,10.90
2017-08-28T13:54:21.630Z,11.10
2017-08-28T13:56:50.254Z,11.47
2017-08-28T13:59:18.850Z,12.50
2017-08-28T14:01:47.415Z,10.60
2017-08-28T14:04:15.973Z,10.43
2017-08-28T14:06:43.994Z,10.40
2017-08-28T14:09:12.446Z,8.77
2017-08-28T14:11:40.575Z,10.73
2017-08-28T14:14:09.074Z,11.37
2017-08-28T14:16:37.606Z,10.40
2017-08-28T14:19:06.454Z,11.00
2017-08-28T14:21:35.799Z,12.23
2017-08-28T14:24:04.446Z,13.40
2017-08-28T14:26:32.935Z,12.77
2017-08-28T14:29:01.486Z,13.53
2017-08-28T14:31:30.099Z,11.53
2017-08-28T14:33:58.583Z,11.27
2017-08-28T14:36:26.884Z,10.50
2017-08-28T14:38:55.369Z,10.00
2017-08-28T14:41:23.934Z,10.43
2017-08-28T14:43:52.478Z,11.10
2017-08-28T14:46:21.093Z,10.77
2017-08-28T14:48:49.574Z,12.50
2017-08-28T14:51:19.087Z,10.47
2017-08-28T14:53:47.481Z,9.30
2017-08-28T14:56:16.086Z,9.87
2017-08-28T14:58:44.773Z,9.00
2017-08-28T15:01:12.790Z,9.07
2017-08-28T15:03:41.362Z,9.30
2017-08-28T15:06:09.982Z,10.70
2017-08-28T15:08:37.998Z,9.33
2017-08-28T15:11:06.777Z,9.23
2017-08-28T15:13:35.458Z,10.23
2017-08-28T15:16:03.875Z,10.00
2017-08-28T15:18:32.534Z,10.53
2017-08-28T15:21:01.117Z,9.50
2017-08-28T15:23:29.793Z,10.70
2017-08-28T15:25:58.423Z,9.83
2017-08-28T15:28:26.983Z,10.47
2017-08-28T15:30:55.548Z,9.83
2017-08-28T15:33:24.338Z,10.20
2017-08-28T15:35:52.867Z,11.07
2017-08-28T15:38:21.626Z,10.67
2017-08-28T15:40:50.474Z,9.77
2017-08-28T15:43:19.093Z,11.27
2017-08-28T15:45:47.682Z,10.50
2017-08-28T15:48:16.374Z,11.37
2017-08-28T15:50:45.118Z,10.70
2017-08-28T15:53:14.471Z,11.03
2017-08-28T15:55:43.246Z,10.87
2017-08-28T15:58:12.029Z,11.00
2017-08-28T16:00:40.498Z,11.80
2017-08-28T16:03:09.213Z,12.80
2017-08-28T16:05:37.626Z,11.50
2017-08-28T16:08:06.057Z,10.43
2017-08-28T16:10:34.766Z,11.37
2017-08-28T16:13:03.387Z,11.97
2017-08-28T16:15:31.928Z,11.47
2017-08-28T16:18:00.586Z,11.30
2017-08-28T16:20:29.126Z,11.37
2017-08-28T16:22:57.850Z,12.50
2017-08-28T16:25:26.438Z,13.60
2017-08-28T16:27:54.955Z,12.93
2017-08-28T16:30:23.530Z,14.07
2017-08-28T16:32:52.193Z,12.90
2017-08-28T16:35:20.709Z,12.20
2017-08-28T16:37:49.294Z,12.63
2017-08-28T16:40:18.074Z,12.37
2017-08-28T16:42:46.546Z,11.50
2017-08-28T16:45:15.073Z,11.60
2017-08-28T16:47:43.187Z,12.50
2017-08-28T16:50:11.720Z,11.33
2017-08-28T16:52:40.358Z,11.97
2017-08-28T16:55:08.839Z,12.00
2017-08-28T17:10:33.954Z,10.10
2017-08-28T17:13:02.695Z,12.40
2017-08-28T17:15:31.176Z,11.10
2017-08-28T17:17:59.334Z,11.13
2017-08-28T17:20:27.907Z,10.90
2017-08-28T17:22:56.698Z,13.33
2017-08-28T17:25:25.510Z,11.87
2017-08-28T17:27:53.526Z,11.00
2017-08-28T17:30:22.049Z,12.10
2017-08-28T17:32:50.262Z,12.57
2017-08-28T17:35:18.827Z,12.17
2017-08-28T17:37:46.851Z,12.93
2017-08-28T17:40:15.678Z,11.00
2017-08-28T17:42:44.349Z,10.83
2017-08-28T17:45:13.098Z,12.13
2017-08-28T17:47:42.094Z,11.40
2017-08-28T17:50:10.447Z,13.07
2017-08-28T17:52:38.894Z,10.90
2017-08-28T17:55:07.103Z,12.60
2017-08-28T17:57:35.582Z,11.37
2017-08-28T18:00:04.302Z,11.80
2017-08-28T18:02:32.926Z,12.03
2017-08-28T18:05:01.515Z,13.90
2017-08-28T18:07:30.300Z,12.20
2017-08-28T18:09:58.397Z,12.40
2017-08-28T18:12:26.991Z,12.10
2017-08-28T18:14:55.847Z,12.40
2017-08-28T18:17:23.985Z,11.63
2017-08-28T18:19:52.516Z,12.70
2017-08-28T18:22:21.257Z,12.63
2017-08-28T18:24:49.847Z,13.37
2017-08-28T18:27:18.289Z,12.70
2017-08-28T18:29:47.011Z,11.70
2017-08-28T18:32:15.502Z,12.60
2017-08-28T18:34:43.539Z,12.07
2017-08-28T18:37:11.578Z,12.93
2017-08-28T18:39:39.702Z,12.37
2017-08-28T18:42:07.737Z,11.73
2017-08-28T18:44:35.746Z,13.50
2017-08-28T18:47:03.963Z,12.87
2017-08-28T18:49:31.986Z,12.10
2017-08-28T18:52:00.023Z,10.93
2017-08-28T18:54:28.331Z,11.97
2017-08-28T18:56:56.345Z,12.07
2017-08-28T18:59:24.950Z,12.40
2017-08-28T19:01:53.675Z,12.73
2017-08-28T19:04:21.810Z,11.93
2017-08-28T19:06:50.303Z,12.23
2017-08-28T19:09:19.191Z,13.33
2017-08-28T19:11:47.864Z,12.43
2017-08-28T19:14:16.290Z,12.50
2017-08-28T19:16:45.150Z,12.17
2017-08-28T19:19:13.858Z,12.43
2017-08-28T19:21:42.486Z,13.30
2017-08-28T19:24:10.963Z,11.97
2017-08-28T19:26:38.978Z,12.50
2017-08-28T19:29:07.448Z,12.80
2017-08-28T19:31:36.178Z,12.63
2017-08-28T19:34:08.123Z,14.23
2017-08-28T19:36:36.922Z,13.63
2017-08-28T19:39:05.850Z,12.40
2017-08-28T19:41:34.251Z,11.93
2017-08-28T19:44:03.095Z,13.30
2017-08-28T19:46:31.102Z,12.40
2017-08-28T19:48:59.704Z,12.50
2017-08-28T19:51:28.310Z,12.10
2017-08-28T19:53:56.990Z,11.60
2017-08-28T19:56:25.466Z,13.33
2017-08-28T19:58:53.713Z,11.43
2017-08-28T20:01:22.950Z,14.17
2017-08-28T20:03:51.643Z,13.70
2017-08-28T20:06:20.494Z,13.83
2017-08-28T20:08:48.890Z,14.03
2017-08-28T20:11:17.394Z,12.80
2017-08-28T20:13:46.212Z,13.70
2017-08-28T20:16:14.651Z,14.33
2017-08-28T20:18:43.361Z,13.40
2017-08-28T20:21:12.151Z,12.77
2017-08-28T20:23:40.891Z,13.53
2017-08-28T20:26:08.906Z,13.10
2017-08-28T20:28:37.619Z,13.03
2017-08-28T20:31:06.338Z,11.60
2017-08-28T20:33:34.738Z,12.90
2017-08-28T20:36:03.346Z,11.97
2017-08-28T20:38:32.030Z,13.83
2017-08-28T20:41:00.708Z,12.50
2017-08-28T20:43:29.266Z,12.57
2017-08-28T20:45:57.507Z,12.57
2017-08-28T20:48:25.944Z,13.10
2017-08-28T20:50:54.550Z,12.47
2017-08-28T20:53:23.235Z,12.00
2017-08-28T20:55:52.013Z,11.57
2017-08-28T20:58:20.678Z,12.37
2017-08-28T21:00:49.221Z,11.40
2017-08-28T21:03:17.972Z,12.53
2017-08-28T21:19:18.241Z,11.00
2017-08-28T21:21:46.890Z,10.03
2017-08-28T21:24:15.374Z,10.27
2017-08-28T21:26:44.022Z,9.90
2017-08-28T21:29:12.471Z,11.90
2017-08-28T21:31:41.190Z,11.00
2017-08-28T21:34:09.774Z,11.13
2017-08-28T21:36:37.791Z,12.90
2017-08-28T21:39:06.364Z,13.00
2017-08-28T21:41:35.018Z,13.50
2017-08-28T21:44:03.361Z,12.47
2017-08-28T21:46:32.012Z,11.97
2017-08-28T21:49:00.742Z,13.63
2017-08-28T21:51:29.322Z,13.30
2017-08-28T21:53:57.942Z,14.20
2017-08-28T21:56:27.387Z,14.17
2017-08-28T21:58:55.403Z,13.70
2017-08-28T22:01:23.842Z,14.57
2017-08-28T22:03:52.179Z,13.73
2017-08-28T22:06:20.705Z,13.53
2017-08-28T22:08:49.315Z,14.40
2017-08-28T22:11:18.037Z,14.40
2017-08-28T22:13:46.050Z,14.30
2017-08-28T22:16:14.635Z,14.47
2017-08-28T22:18:43.206Z,14.80
2017-08-28T22:21:11.729Z,14.53
2017-08-28T22:23:40.318Z,14.30
2017-08-28T22:26:09.173Z,16.83
2017-08-28T22:28:37.603Z,16.53
2017-08-28T22:31:06.078Z,14.93
2017-08-28T22:33:34.858Z,14.60
2017-08-28T22:36:03.474Z,15.17
2017-08-28T22:38:31.930Z,18.97
2017-08-28T22:41:00.686Z,15.50
2017-08-28T22:43:30.023Z,16.73
2017-08-28T22:45:58.500Z,18.23
2017-08-28T22:48:27.358Z,17.87
2017-08-28T22:50:56.354Z,18.87
2017-08-28T22:53:25.106Z,16.77
2017-08-28T22:55:53.566Z,16.53
2017-08-28T22:58:22.115Z,15.00
2017-08-28T23:00:50.118Z,15.40
2017-08-28T23:03:18.875Z,15.30
2017-08-28T23:05:46.902Z,16.43
2017-08-28T23:08:14.910Z,15.10
2017-08-28T23:10:43.795Z,14.67
2017-08-28T23:13:12.219Z,14.13
2017-08-28T23:15:40.694Z,15.87
2017-08-28T23:18:09.627Z,15.07
2017-08-28T23:20:38.022Z,13.13
2017-08-28T23:23:06.074Z,16.20
2017-08-28T23:25:34.808Z,14.97
2017-08-28T23:28:02.843Z,15.20
2017-08-28T23:30:31.526Z,13.97
2017-08-28T23:33:00.454Z,11.80
2017-08-28T23:35:28.913Z,12.27
2017-08-28T23:37:57.014Z,13.07
2017-08-28T23:40:25.561Z,12.40
2017-08-28T23:42:54.082Z,12.77
2017-08-28T23:45:22.706Z,11.70
2017-08-28T23:47:51.515Z,12.20
2017-08-28T23:50:19.911Z,12.47
2017-08-28T23:52:48.346Z,12.87
2017-08-28T23:55:16.450Z,12.37
2017-08-28T23:57:44.973Z,11.10
